sensor_id;sensor_type;location;lat;lon;timestamp;P1;durP1;ratioP1;P2;durP2;ratioP2
12585;SDS011;6358;50.760;0.282;2023-05-08T00:00:26;2.77;;;2.10;;
12585;SDS011;6358;50.760;0.282;2023-05-08T00:02:52;3.90;;;2.37;;
12585;SDS011;6358;50.760;0.282;2023-05-08T00:05:18;2.23;;;2.00;;
12585;SDS011;6358;50.760;0.282;2023-05-08T00:07:44;2.60;;;2.03;;
12585;SDS011;6358;50.760;0.282;2023-05-08T00:10:11;2.80;;;2.20;;
12585;SDS011;6358;50.760;0.282;2023-05-08T00:12:37;2.97;;;2.20;;
12585;SDS011;6358;50.760;0.282;2023-05-08T00:15:03;3.17;;;2.33;;
12585;SDS011;6358;50.760;0.282;2023-05-08T00:17:29;2.47;;;2.00;;
12585;SDS011;6358;50.760;0.282;2023-05-08T00:19:56;2.27;;;2.07;;
12585;SDS011;6358;50.760;0.282;2023-05-08T00:22:22;2.27;;;2.07;;
12585;SDS011;6358;50.760;0.282;2023-05-08T00:24:48;2.40;;;2.20;;
12585;SDS011;6358;50.760;0.282;2023-05-08T00:27:14;2.60;;;2.17;;
12585;SDS011;6358;50.760;0.282;2023-05-08T00:29:40;3.93;;;2.20;;
12585;SDS011;6358;50.760;0.282;2023-05-08T00:32:07;2.10;;;1.90;;
12585;SDS011;6358;50.760;0.282;2023-05-08T00:34:33;2.10;;;1.90;;
12585;SDS011;6358;50.760;0.282;2023-05-08T00:36:59;1.97;;;1.77;;
12585;SDS011;6358;50.760;0.282;2023-05-08T00:39:26;2.60;;;2.03;;
12585;SDS011;6358;50.760;0.282;2023-05-08T00:41:52;2.37;;;1.93;;
12585;SDS011;6358;50.760;0.282;2023-05-08T00:44:19;2.33;;;1.90;;
12585;SDS011;6358;50.760;0.282;2023-05-08T00:46:45;3.20;;;2.30;;
12585;SDS011;6358;50.760;0.282;2023-05-08T00:49:11;2.63;;;2.17;;
12585;SDS011;6358;50.760;0.282;2023-05-08T00:51:41;2.03;;;1.80;;
12585;SDS011;6358;50.760;0.282;2023-05-08T00:54:08;2.80;;;2.13;;
12585;SDS011;6358;50.760;0.282;2023-05-08T00:56:35;2.07;;;1.80;;
12585;SDS011;6358;50.760;0.282;2023-05-08T00:59:02;2.17;;;1.97;;
12585;SDS011;6358;50.760;0.282;2023-05-08T01:01:29;2.43;;;2.00;;
12585;SDS011;6358;50.760;0.282;2023-05-08T01:03:55;1.97;;;1.77;;
12585;SDS011;6358;50.760;0.282;2023-05-08T01:06:21;2.50;;;1.93;;
12585;SDS011;6358;50.760;0.282;2023-05-08T01:08:48;1.87;;;1.77;;
12585;SDS011;6358;50.760;0.282;2023-05-08T01:11:24;2.03;;;1.93;;
12585;SDS011;6358;50.760;0.282;2023-05-08T01:21:49;2.13;;;1.77;;
12585;SDS011;6358;50.760;0.282;2023-05-08T01:25:02;2.73;;;1.77;;
12585;SDS011;6358;50.760;0.282;2023-05-08T01:32:38;2.97;;;1.97;;
12585;SDS011;6358;50.760;0.282;2023-05-08T01:37:44;2.30;;;1.70;;
12585;SDS011;6358;50.760;0.282;2023-05-08T01:40:16;2.40;;;1.57;;
12585;SDS011;6358;50.760;0.282;2023-05-08T01:45:27;2.07;;;1.77;;
12585;SDS011;6358;50.760;0.282;2023-05-08T01:48:07;2.43;;;1.80;;
12585;SDS011;6358;50.760;0.282;2023-05-08T01:50:44;4.17;;;1.73;;
12585;SDS011;6358;50.760;0.282;2023-05-08T01:53:15;2.07;;;1.50;;
12585;SDS011;6358;50.760;0.282;2023-05-08T01:55:42;2.37;;;1.83;;
12585;SDS011;6358;50.760;0.282;2023-05-08T01:58:09;3.23;;;1.70;;
12585;SDS011;6358;50.760;0.282;2023-05-08T02:00:37;2.57;;;1.93;;
12585;SDS011;6358;50.760;0.282;2023-05-08T02:03:04;1.83;;;1.67;;
12585;SDS011;6358;50.760;0.282;2023-05-08T02:05:31;1.90;;;1.67;;
12585;SDS011;6358;50.760;0.282;2023-05-08T02:07:58;2.23;;;1.60;;
12585;SDS011;6358;50.760;0.282;2023-05-08T02:10:24;4.53;;;2.03;;
12585;SDS011;6358;50.760;0.282;2023-05-08T02:12:51;1.53;;;1.40;;
12585;SDS011;6358;50.760;0.282;2023-05-08T02:15:18;2.43;;;1.80;;
12585;SDS011;6358;50.760;0.282;2023-05-08T02:17:45;1.80;;;1.70;;
12585;SDS011;6358;50.760;0.282;2023-05-08T02:20:13;1.73;;;1.50;;
12585;SDS011;6358;50.760;0.282;2023-05-08T02:22:41;2.13;;;1.67;;
12585;SDS011;6358;50.760;0.282;2023-05-08T02:25:08;2.10;;;1.90;;
12585;SDS011;6358;50.760;0.282;2023-05-08T02:27:38;2.23;;;1.60;;
12585;SDS011;6358;50.760;0.282;2023-05-08T02:30:04;2.27;;;1.73;;
12585;SDS011;6358;50.760;0.282;2023-05-08T02:32:31;2.10;;;1.60;;
12585;SDS011;6358;50.760;0.282;2023-05-08T02:34:57;3.53;;;1.90;;
12585;SDS011;6358;50.760;0.282;2023-05-08T02:37:24;1.67;;;1.53;;
12585;SDS011;6358;50.760;0.282;2023-05-08T02:39:50;1.97;;;1.57;;
12585;SDS011;6358;50.760;0.282;2023-05-08T02:42:18;2.03;;;1.60;;
12585;SDS011;6358;50.760;0.282;2023-05-08T02:44:44;2.67;;;1.63;;
12585;SDS011;6358;50.760;0.282;2023-05-08T02:52:12;2.33;;;1.60;;
12585;SDS011;6358;50.760;0.282;2023-05-08T02:54:40;1.87;;;1.50;;
12585;SDS011;6358;50.760;0.282;2023-05-08T02:59:44;2.40;;;1.67;;
12585;SDS011;6358;50.760;0.282;2023-05-08T03:02:14;1.70;;;1.50;;
12585;SDS011;6358;50.760;0.282;2023-05-08T03:04:42;1.83;;;1.73;;
12585;SDS011;6358;50.760;0.282;2023-05-08T03:07:10;1.40;;;1.30;;
12585;SDS011;6358;50.760;0.282;2023-05-08T03:09:38;2.10;;;1.60;;
12585;SDS011;6358;50.760;0.282;2023-05-08T03:12:08;1.70;;;1.60;;
12585;SDS011;6358;50.760;0.282;2023-05-08T03:14:36;1.50;;;1.40;;
12585;SDS011;6358;50.760;0.282;2023-05-08T03:17:05;2.47;;;1.70;;
12585;SDS011;6358;50.760;0.282;2023-05-08T03:19:33;2.60;;;1.73;;
12585;SDS011;6358;50.760;0.282;2023-05-08T03:22:00;2.20;;;1.70;;
12585;SDS011;6358;50.760;0.282;2023-05-08T03:24:28;3.03;;;1.53;;
12585;SDS011;6358;50.760;0.282;2023-05-08T03:26:56;1.73;;;1.50;;
12585;SDS011;6358;50.760;0.282;2023-05-08T03:29:23;3.63;;;1.63;;
12585;SDS011;6358;50.760;0.282;2023-05-08T03:31:50;2.13;;;1.70;;
12585;SDS011;6358;50.760;0.282;2023-05-08T03:34:16;2.13;;;1.50;;
12585;SDS011;6358;50.760;0.282;2023-05-08T03:36:44;1.90;;;1.60;;
12585;SDS011;6358;50.760;0.282;2023-05-08T03:39:10;2.03;;;1.53;;
12585;SDS011;6358;50.760;0.282;2023-05-08T03:41:36;1.70;;;1.60;;
12585;SDS011;6358;50.760;0.282;2023-05-08T03:44:03;2.03;;;1.43;;
12585;SDS011;6358;50.760;0.282;2023-05-08T03:46:30;2.70;;;1.70;;
12585;SDS011;6358;50.760;0.282;2023-05-08T03:48:56;1.67;;;1.50;;
12585;SDS011;6358;50.760;0.282;2023-05-08T03:51:24;2.07;;;1.60;;
12585;SDS011;6358;50.760;0.282;2023-05-08T03:53:52;2.77;;;1.70;;
12585;SDS011;6358;50.760;0.282;2023-05-08T03:56:18;2.33;;;1.60;;
12585;SDS011;6358;50.760;0.282;2023-05-08T04:04:00;1.73;;;1.50;;
12585;SDS011;6358;50.760;0.282;2023-05-08T04:09:07;2.20;;;1.70;;
12585;SDS011;6358;50.760;0.282;2023-05-08T04:11:47;3.17;;;2.00;;
12585;SDS011;6358;50.760;0.282;2023-05-08T04:14:18;2.27;;;1.60;;
12585;SDS011;6358;50.760;0.282;2023-05-08T04:16:48;2.00;;;1.80;;
12585;SDS011;6358;50.760;0.282;2023-05-08T04:19:17;1.93;;;1.70;;
12585;SDS011;6358;50.760;0.282;2023-05-08T04:21:44;2.47;;;1.80;;
12585;SDS011;6358;50.760;0.282;2023-05-08T04:24:11;2.40;;;1.80;;
12585;SDS011;6358;50.760;0.282;2023-05-08T04:26:38;1.80;;;1.70;;
12585;SDS011;6358;50.760;0.282;2023-05-08T04:29:04;2.00;;;1.80;;
12585;SDS011;6358;50.760;0.282;2023-05-08T04:31:31;2.30;;;1.97;;
12585;SDS011;6358;50.760;0.282;2023-05-08T04:33:59;2.07;;;1.70;;
12585;SDS011;6358;50.760;0.282;2023-05-08T04:36:25;1.83;;;1.63;;
12585;SDS011;6358;50.760;0.282;2023-05-08T04:38:53;3.17;;;2.00;;
12585;SDS011;6358;50.760;0.282;2023-05-08T04:41:19;2.33;;;1.93;;
12585;SDS011;6358;50.760;0.282;2023-05-08T04:43:45;2.43;;;1.80;;
12585;SDS011;6358;50.760;0.282;2023-05-08T04:46:12;2.63;;;1.60;;
12585;SDS011;6358;50.760;0.282;2023-05-08T04:48:38;2.50;;;1.77;;
12585;SDS011;6358;50.760;0.282;2023-05-08T04:51:04;2.00;;;1.80;;
12585;SDS011;6358;50.760;0.282;2023-05-08T04:53:30;2.17;;;1.97;;
12585;SDS011;6358;50.760;0.282;2023-05-08T04:55:56;1.70;;;1.60;;
12585;SDS011;6358;50.760;0.282;2023-05-08T04:58:23;1.80;;;1.70;;
12585;SDS011;6358;50.760;0.282;2023-05-08T05:00:49;2.87;;;1.80;;
12585;SDS011;6358;50.760;0.282;2023-05-08T05:03:15;2.10;;;1.90;;
12585;SDS011;6358;50.760;0.282;2023-05-08T05:05:41;2.00;;;1.80;;
12585;SDS011;6358;50.760;0.282;2023-05-08T05:08:07;2.00;;;1.80;;
12585;SDS011;6358;50.760;0.282;2023-05-08T05:10:33;2.53;;;1.93;;
12585;SDS011;6358;50.760;0.282;2023-05-08T05:12:59;2.27;;;1.80;;
12585;SDS011;6358;50.760;0.282;2023-05-08T05:15:26;1.97;;;1.83;;
12585;SDS011;6358;50.760;0.282;2023-05-08T05:17:52;2.30;;;1.90;;
12585;SDS011;6358;50.760;0.282;2023-05-08T05:20:18;2.77;;;2.00;;
12585;SDS011;6358;50.760;0.282;2023-05-08T05:22:44;2.10;;;1.90;;
12585;SDS011;6358;50.760;0.282;2023-05-08T05:25:10;3.97;;;2.00;;
12585;SDS011;6358;50.760;0.282;2023-05-08T05:27:36;3.00;;;2.00;;
12585;SDS011;6358;50.760;0.282;2023-05-08T05:30:02;2.00;;;1.80;;
12585;SDS011;6358;50.760;0.282;2023-05-08T05:32:29;2.20;;;1.73;;
12585;SDS011;6358;50.760;0.282;2023-05-08T05:34:55;1.83;;;1.60;;
12585;SDS011;6358;50.760;0.282;2023-05-08T05:37:21;2.20;;;2.00;;
12585;SDS011;6358;50.760;0.282;2023-05-08T05:39:47;1.73;;;1.63;;
12585;SDS011;6358;50.760;0.282;2023-05-08T05:42:13;2.60;;;1.87;;
12585;SDS011;6358;50.760;0.282;2023-05-08T05:44:40;1.87;;;1.77;;
12585;SDS011;6358;50.760;0.282;2023-05-08T05:47:06;2.60;;;1.77;;
12585;SDS011;6358;50.760;0.282;2023-05-08T05:49:34;2.00;;;1.80;;
12585;SDS011;6358;50.760;0.282;2023-05-08T05:52:00;3.07;;;2.03;;
12585;SDS011;6358;50.760;0.282;2023-05-08T05:54:26;2.73;;;1.73;;
12585;SDS011;6358;50.760;0.282;2023-05-08T05:56:52;2.33;;;1.83;;
12585;SDS011;6358;50.760;0.282;2023-05-08T05:59:18;2.60;;;2.10;;
12585;SDS011;6358;50.760;0.282;2023-05-08T06:01:44;2.27;;;2.07;;
12585;SDS011;6358;50.760;0.282;2023-05-08T06:04:11;1.90;;;1.80;;
12585;SDS011;6358;50.760;0.282;2023-05-08T06:06:38;2.47;;;2.00;;
12585;SDS011;6358;50.760;0.282;2023-05-08T06:09:04;2.70;;;2.00;;
12585;SDS011;6358;50.760;0.282;2023-05-08T06:11:31;2.80;;;2.00;;
12585;SDS011;6358;50.760;0.282;2023-05-08T06:13:57;2.03;;;1.77;;
12585;SDS011;6358;50.760;0.282;2023-05-08T06:16:23;2.07;;;1.90;;
12585;SDS011;6358;50.760;0.282;2023-05-08T06:18:49;2.50;;;1.90;;
12585;SDS011;6358;50.760;0.282;2023-05-08T06:21:15;2.37;;;1.93;;
12585;SDS011;6358;50.760;0.282;2023-05-08T06:23:41;1.87;;;1.77;;
12585;SDS011;6358;50.760;0.282;2023-05-08T06:26:07;2.20;;;1.80;;
12585;SDS011;6358;50.760;0.282;2023-05-08T06:28:34;2.50;;;1.90;;
12585;SDS011;6358;50.760;0.282;2023-05-08T06:31:00;2.80;;;1.83;;
12585;SDS011;6358;50.760;0.282;2023-05-08T06:33:26;2.00;;;1.53;;
12585;SDS011;6358;50.760;0.282;2023-05-08T06:35:52;2.27;;;1.70;;
12585;SDS011;6358;50.760;0.282;2023-05-08T06:38:18;2.30;;;1.60;;
12585;SDS011;6358;50.760;0.282;2023-05-08T06:40:44;2.10;;;1.90;;
12585;SDS011;6358;50.760;0.282;2023-05-08T06:43:11;1.60;;;1.50;;
12585;SDS011;6358;50.760;0.282;2023-05-08T06:45:38;2.77;;;1.80;;
12585;SDS011;6358;50.760;0.282;2023-05-08T06:48:04;1.97;;;1.73;;
12585;SDS011;6358;50.760;0.282;2023-05-08T06:50:30;2.50;;;1.90;;
12585;SDS011;6358;50.760;0.282;2023-05-08T06:52:57;2.60;;;1.80;;
12585;SDS011;6358;50.760;0.282;2023-05-08T06:55:23;1.80;;;1.70;;
12585;SDS011;6358;50.760;0.282;2023-05-08T06:57:49;1.60;;;1.50;;
12585;SDS011;6358;50.760;0.282;2023-05-08T07:00:15;3.33;;;1.70;;
12585;SDS011;6358;50.760;0.282;2023-05-08T07:02:41;2.43;;;1.83;;
12585;SDS011;6358;50.760;0.282;2023-05-08T07:05:07;2.17;;;1.63;;
12585;SDS011;6358;50.760;0.282;2023-05-08T07:07:34;2.53;;;1.77;;
12585;SDS011;6358;50.760;0.282;2023-05-08T07:10:00;2.77;;;1.80;;
12585;SDS011;6358;50.760;0.282;2023-05-08T07:12:26;2.43;;;1.90;;
12585;SDS011;6358;50.760;0.282;2023-05-08T07:14:52;2.10;;;1.90;;
12585;SDS011;6358;50.760;0.282;2023-05-08T07:17:18;2.03;;;1.60;;
12585;SDS011;6358;50.760;0.282;2023-05-08T07:19:48;3.47;;;1.90;;
12585;SDS011;6358;50.760;0.282;2023-05-08T07:22:15;2.80;;;1.50;;
12585;SDS011;6358;50.760;0.282;2023-05-08T07:24:41;2.10;;;1.53;;
12585;SDS011;6358;50.760;0.282;2023-05-08T07:27:07;2.33;;;1.70;;
12585;SDS011;6358;50.760;0.282;2023-05-08T07:29:33;1.73;;;1.60;;
12585;SDS011;6358;50.760;0.282;2023-05-08T07:32:00;1.70;;;1.57;;
12585;SDS011;6358;50.760;0.282;2023-05-08T07:34:26;1.87;;;1.60;;
12585;SDS011;6358;50.760;0.282;2023-05-08T07:36:52;2.60;;;1.70;;
12585;SDS011;6358;50.760;0.282;2023-05-08T07:39:19;2.13;;;1.80;;
12585;SDS011;6358;50.760;0.282;2023-05-08T07:41:45;1.60;;;1.50;;
12585;SDS011;6358;50.760;0.282;2023-05-08T07:44:11;1.87;;;1.70;;
12585;SDS011;6358;50.760;0.282;2023-05-08T07:46:37;2.03;;;1.60;;
12585;SDS011;6358;50.760;0.282;2023-05-08T07:49:03;2.67;;;1.90;;
12585;SDS011;6358;50.760;0.282;2023-05-08T07:51:29;2.83;;;1.63;;
12585;SDS011;6358;50.760;0.282;2023-05-08T07:53:56;1.87;;;1.67;;
12585;SDS011;6358;50.760;0.282;2023-05-08T07:56:22;2.40;;;1.70;;
12585;SDS011;6358;50.760;0.282;2023-05-08T07:58:48;2.07;;;1.80;;
12585;SDS011;6358;50.760;0.282;2023-05-08T08:01:14;1.73;;;1.50;;
12585;SDS011;6358;50.760;0.282;2023-05-08T08:03:42;1.83;;;1.70;;
12585;SDS011;6358;50.760;0.282;2023-05-08T08:06:08;1.83;;;1.40;;
12585;SDS011;6358;50.760;0.282;2023-05-08T08:08:34;3.23;;;1.90;;
12585;SDS011;6358;50.760;0.282;2023-05-08T08:11:00;1.60;;;1.50;;
12585;SDS011;6358;50.760;0.282;2023-05-08T08:13:27;1.73;;;1.43;;
12585;SDS011;6358;50.760;0.282;2023-05-08T08:15:53;3.53;;;1.57;;
12585;SDS011;6358;50.760;0.282;2023-05-08T08:18:19;2.47;;;1.60;;
12585;SDS011;6358;50.760;0.282;2023-05-08T08:20:45;1.50;;;1.40;;
12585;SDS011;6358;50.760;0.282;2023-05-08T08:23:11;2.20;;;1.60;;
12585;SDS011;6358;50.760;0.282;2023-05-08T08:25:37;2.27;;;1.70;;
12585;SDS011;6358;50.760;0.282;2023-05-08T08:28:03;1.93;;;1.67;;
12585;SDS011;6358;50.760;0.282;2023-05-08T08:30:29;1.57;;;1.47;;
12585;SDS011;6358;50.760;0.282;2023-05-08T08:32:55;3.20;;;1.57;;
12585;SDS011;6358;50.760;0.282;2023-05-08T08:35:26;2.27;;;1.60;;
12585;SDS011;6358;50.760;0.282;2023-05-08T08:37:53;1.83;;;1.67;;
12585;SDS011;6358;50.760;0.282;2023-05-08T08:40:20;1.77;;;1.50;;
12585;SDS011;6358;50.760;0.282;2023-05-08T08:42:46;2.37;;;1.73;;
12585;SDS011;6358;50.760;0.282;2023-05-08T08:45:12;1.50;;;1.40;;
12585;SDS011;6358;50.760;0.282;2023-05-08T08:47:38;2.03;;;1.67;;
12585;SDS011;6358;50.760;0.282;2023-05-08T08:50:08;1.67;;;1.57;;
12585;SDS011;6358;50.760;0.282;2023-05-08T08:52:38;1.57;;;1.37;;
12585;SDS011;6358;50.760;0.282;2023-05-08T08:55:05;1.67;;;1.40;;
12585;SDS011;6358;50.760;0.282;2023-05-08T08:57:33;2.33;;;1.63;;
12585;SDS011;6358;50.760;0.282;2023-05-08T09:00:00;1.90;;;1.50;;
12585;SDS011;6358;50.760;0.282;2023-05-08T09:02:28;2.37;;;1.50;;
12585;SDS011;6358;50.760;0.282;2023-05-08T09:04:56;1.63;;;1.50;;
12585;SDS011;6358;50.760;0.282;2023-05-08T09:07:22;2.50;;;1.50;;
12585;SDS011;6358;50.760;0.282;2023-05-08T09:09:48;1.83;;;1.50;;
12585;SDS011;6358;50.760;0.282;2023-05-08T09:12:15;2.33;;;1.40;;
12585;SDS011;6358;50.760;0.282;2023-05-08T09:14:41;3.07;;;1.60;;
12585;SDS011;6358;50.760;0.282;2023-05-08T09:17:08;1.73;;;1.63;;
12585;SDS011;6358;50.760;0.282;2023-05-08T09:19:34;2.53;;;1.77;;
12585;SDS011;6358;50.760;0.282;2023-05-08T09:22:00;1.87;;;1.50;;
12585;SDS011;6358;50.760;0.282;2023-05-08T09:24:46;1.87;;;1.40;;
12585;SDS011;6358;50.760;0.282;2023-05-08T09:27:22;2.80;;;1.80;;
12585;SDS011;6358;50.760;0.282;2023-05-08T09:30:10;2.70;;;1.63;;
12585;SDS011;6358;50.760;0.282;2023-05-08T09:32:36;1.60;;;1.50;;
12585;SDS011;6358;50.760;0.282;2023-05-08T09:35:03;2.00;;;1.50;;
12585;SDS011;6358;50.760;0.282;2023-05-08T09:37:29;2.77;;;1.60;;
12585;SDS011;6358;50.760;0.282;2023-05-08T09:40:11;1.67;;;1.33;;
12585;SDS011;6358;50.760;0.282;2023-05-08T09:42:38;2.97;;;1.40;;
12585;SDS011;6358;50.760;0.282;2023-05-08T09:45:04;1.70;;;1.40;;
12585;SDS011;6358;50.760;0.282;2023-05-08T09:47:31;2.50;;;1.53;;
12585;SDS011;6358;50.760;0.282;2023-05-08T09:52:23;1.60;;;1.50;;
12585;SDS011;6358;50.760;0.282;2023-05-08T09:54:56;1.83;;;1.43;;
12585;SDS011;6358;50.760;0.282;2023-05-08T09:57:23;1.50;;;1.40;;
12585;SDS011;6358;50.760;0.282;2023-05-08T09:59:49;3.03;;;1.70;;
12585;SDS011;6358;50.760;0.282;2023-05-08T10:02:15;2.50;;;1.53;;
12585;SDS011;6358;50.760;0.282;2023-05-08T10:04:44;3.43;;;1.60;;
12585;SDS011;6358;50.760;0.282;2023-05-08T10:07:10;2.40;;;1.60;;
12585;SDS011;6358;50.760;0.282;2023-05-08T10:09:36;2.70;;;1.50;;
12585;SDS011;6358;50.760;0.282;2023-05-08T10:12:02;2.20;;;1.70;;
12585;SDS011;6358;50.760;0.282;2023-05-08T10:14:29;2.00;;;1.33;;
12585;SDS011;6358;50.760;0.282;2023-05-08T10:16:55;1.80;;;1.33;;
12585;SDS011;6358;50.760;0.282;2023-05-08T10:19:22;1.87;;;1.50;;
12585;SDS011;6358;50.760;0.282;2023-05-08T10:21:49;1.47;;;1.37;;
12585;SDS011;6358;50.760;0.282;2023-05-08T10:26:43;2.53;;;1.37;;
12585;SDS011;6358;50.760;0.282;2023-05-08T10:29:16;1.67;;;1.30;;
12585;SDS011;6358;50.760;0.282;2023-05-08T10:31:43;1.47;;;1.37;;
12585;SDS011;6358;50.760;0.282;2023-05-08T10:34:17;2.33;;;1.37;;
12585;SDS011;6358;50.760;0.282;2023-05-08T10:36:45;1.50;;;1.40;;
12585;SDS011;6358;50.760;0.282;2023-05-08T10:39:12;2.87;;;1.70;;
12585;SDS011;6358;50.760;0.282;2023-05-08T10:41:40;1.40;;;1.30;;
12585;SDS011;6358;50.760;0.282;2023-05-08T10:44:07;2.13;;;1.50;;
12585;SDS011;6358;50.760;0.282;2023-05-08T10:52:19;1.50;;;1.40;;
12585;SDS011;6358;50.760;0.282;2023-05-08T10:57:28;2.63;;;1.50;;
12585;SDS011;6358;50.760;0.282;2023-05-08T10:59:54;1.60;;;1.30;;
12585;SDS011;6358;50.760;0.282;2023-05-08T11:02:26;1.43;;;1.30;;
12585;SDS011;6358;50.760;0.282;2023-05-08T11:04:54;2.23;;;1.47;;
12585;SDS011;6358;50.760;0.282;2023-05-08T11:07:28;1.70;;;1.53;;
12585;SDS011;6358;50.760;0.282;2023-05-08T11:09:59;2.20;;;1.40;;
12585;SDS011;6358;50.760;0.282;2023-05-08T11:12:30;1.60;;;1.30;;
12585;SDS011;6358;50.760;0.282;2023-05-08T11:15:04;2.37;;;1.40;;
12585;SDS011;6358;50.760;0.282;2023-05-08T11:17:31;3.73;;;1.40;;
12585;SDS011;6358;50.760;0.282;2023-05-08T11:19:59;2.07;;;1.30;;
12585;SDS011;6358;50.760;0.282;2023-05-08T11:22:26;2.57;;;1.40;;
12585;SDS011;6358;50.760;0.282;2023-05-08T11:35:47;2.33;;;1.40;;
12585;SDS011;6358;50.760;0.282;2023-05-08T11:40:44;1.50;;;1.40;;
12585;SDS011;6358;50.760;0.282;2023-05-08T11:43:28;2.60;;;1.50;;
12585;SDS011;6358;50.760;0.282;2023-05-08T11:45:58;1.93;;;1.60;;
12585;SDS011;6358;50.760;0.282;2023-05-08T11:48:25;1.53;;;1.33;;
12585;SDS011;6358;50.760;0.282;2023-05-08T11:50:51;2.40;;;1.47;;
12585;SDS011;6358;50.760;0.282;2023-05-08T11:53:17;2.23;;;1.50;;
12585;SDS011;6358;50.760;0.282;2023-05-08T11:55:47;1.60;;;1.47;;
12585;SDS011;6358;50.760;0.282;2023-05-08T11:58:13;1.67;;;1.57;;
12585;SDS011;6358;50.760;0.282;2023-05-08T12:00:40;2.43;;;1.40;;
12585;SDS011;6358;50.760;0.282;2023-05-08T12:03:17;1.50;;;1.40;;
12585;SDS011;6358;50.760;0.282;2023-05-08T12:05:44;1.43;;;1.27;;
12585;SDS011;6358;50.760;0.282;2023-05-08T12:08:11;1.40;;;1.30;;
12585;SDS011;6358;50.760;0.282;2023-05-08T12:10:53;1.30;;;1.13;;
12585;SDS011;6358;50.760;0.282;2023-05-08T12:13:24;2.27;;;1.33;;
12585;SDS011;6358;50.760;0.282;2023-05-08T12:15:51;2.50;;;1.40;;
12585;SDS011;6358;50.760;0.282;2023-05-08T12:18:18;1.43;;;1.30;;
12585;SDS011;6358;50.760;0.282;2023-05-08T12:20:44;1.53;;;1.20;;
12585;SDS011;6358;50.760;0.282;2023-05-08T12:23:11;2.03;;;1.40;;
12585;SDS011;6358;50.760;0.282;2023-05-08T12:25:38;2.10;;;1.40;;
12585;SDS011;6358;50.760;0.282;2023-05-08T12:28:05;1.83;;;1.37;;
12585;SDS011;6358;50.760;0.282;2023-05-08T12:30:31;1.77;;;1.30;;
12585;SDS011;6358;50.760;0.282;2023-05-08T12:32:58;1.80;;;1.30;;
12585;SDS011;6358;50.760;0.282;2023-05-08T12:35:25;2.37;;;1.40;;
12585;SDS011;6358;50.760;0.282;2023-05-08T12:37:51;2.00;;;1.30;;
12585;SDS011;6358;50.760;0.282;2023-05-08T12:40:24;2.53;;;1.30;;
12585;SDS011;6358;50.760;0.282;2023-05-08T12:42:51;2.07;;;1.37;;
12585;SDS011;6358;50.760;0.282;2023-05-08T12:45:17;1.37;;;1.27;;
12585;SDS011;6358;50.760;0.282;2023-05-08T12:47:44;1.50;;;1.23;;
12585;SDS011;6358;50.760;0.282;2023-05-08T12:50:12;1.30;;;1.20;;
12585;SDS011;6358;50.760;0.282;2023-05-08T12:52:38;1.27;;;1.17;;
12585;SDS011;6358;50.760;0.282;2023-05-08T12:55:05;1.67;;;1.27;;
12585;SDS011;6358;50.760;0.282;2023-05-08T12:57:31;1.83;;;1.40;;
12585;SDS011;6358;50.760;0.282;2023-05-08T13:00:03;1.83;;;1.27;;
12585;SDS011;6358;50.760;0.282;2023-05-08T13:02:29;2.20;;;1.60;;
12585;SDS011;6358;50.760;0.282;2023-05-08T13:04:55;1.40;;;1.30;;
12585;SDS011;6358;50.760;0.282;2023-05-08T13:07:22;1.77;;;1.30;;
12585;SDS011;6358;50.760;0.282;2023-05-08T13:09:55;2.90;;;1.40;;
12585;SDS011;6358;50.760;0.282;2023-05-08T13:12:21;1.67;;;1.40;;
12585;SDS011;6358;50.760;0.282;2023-05-08T13:14:47;1.33;;;1.10;;
12585;SDS011;6358;50.760;0.282;2023-05-08T13:17:16;1.20;;;1.10;;
12585;SDS011;6358;50.760;0.282;2023-05-08T13:19:43;1.63;;;1.50;;
12585;SDS011;6358;50.760;0.282;2023-05-08T13:22:10;1.50;;;1.40;;
12585;SDS011;6358;50.760;0.282;2023-05-08T13:24:36;1.20;;;1.10;;
12585;SDS011;6358;50.760;0.282;2023-05-08T13:27:02;1.43;;;1.33;;
12585;SDS011;6358;50.760;0.282;2023-05-08T13:29:28;1.63;;;1.40;;
12585;SDS011;6358;50.760;0.282;2023-05-08T13:31:54;1.80;;;1.37;;
12585;SDS011;6358;50.760;0.282;2023-05-08T13:34:21;1.33;;;1.23;;
12585;SDS011;6358;50.760;0.282;2023-05-08T13:36:48;1.60;;;1.30;;
12585;SDS011;6358;50.760;0.282;2023-05-08T13:39:14;2.03;;;1.40;;
12585;SDS011;6358;50.760;0.282;2023-05-08T13:41:40;2.00;;;1.30;;
12585;SDS011;6358;50.760;0.282;2023-05-08T13:44:06;2.40;;;1.63;;
12585;SDS011;6358;50.760;0.282;2023-05-08T13:46:32;2.27;;;1.20;;
12585;SDS011;6358;50.760;0.282;2023-05-08T13:48:58;1.43;;;1.10;;
12585;SDS011;6358;50.760;0.282;2023-05-08T13:51:24;1.63;;;1.10;;
12585;SDS011;6358;50.760;0.282;2023-05-08T13:53:50;2.30;;;1.20;;
12585;SDS011;6358;50.760;0.282;2023-05-08T13:56:16;1.50;;;1.27;;
12585;SDS011;6358;50.760;0.282;2023-05-08T13:58:42;1.93;;;1.20;;
12585;SDS011;6358;50.760;0.282;2023-05-08T14:01:09;1.93;;;1.23;;
12585;SDS011;6358;50.760;0.282;2023-05-08T14:03:35;1.73;;;1.23;;
12585;SDS011;6358;50.760;0.282;2023-05-08T14:06:01;1.90;;;1.40;;
12585;SDS011;6358;50.760;0.282;2023-05-08T14:08:27;1.77;;;1.17;;
12585;SDS011;6358;50.760;0.282;2023-05-08T14:10:53;1.57;;;1.20;;
12585;SDS011;6358;50.760;0.282;2023-05-08T14:13:19;1.57;;;1.20;;
12585;SDS011;6358;50.760;0.282;2023-05-08T14:15:45;1.23;;;1.10;;
12585;SDS011;6358;50.760;0.282;2023-05-08T14:18:11;1.77;;;1.10;;
12585;SDS011;6358;50.760;0.282;2023-05-08T14:20:37;1.83;;;1.20;;
12585;SDS011;6358;50.760;0.282;2023-05-08T14:23:03;1.90;;;1.20;;
12585;SDS011;6358;50.760;0.282;2023-05-08T14:25:29;1.40;;;1.30;;
12585;SDS011;6358;50.760;0.282;2023-05-08T14:27:56;1.33;;;1.17;;
12585;SDS011;6358;50.760;0.282;2023-05-08T14:30:22;2.33;;;1.30;;
12585;SDS011;6358;50.760;0.282;2023-05-08T14:32:48;2.23;;;1.30;;
12585;SDS011;6358;50.760;0.282;2023-05-08T14:35:14;1.50;;;1.20;;
12585;SDS011;6358;50.760;0.282;2023-05-08T14:37:40;1.73;;;1.27;;
12585;SDS011;6358;50.760;0.282;2023-05-08T14:40:06;2.53;;;1.40;;
12585;SDS011;6358;50.760;0.282;2023-05-08T14:42:33;1.40;;;1.30;;
12585;SDS011;6358;50.760;0.282;2023-05-08T14:45:00;2.17;;;1.30;;
12585;SDS011;6358;50.760;0.282;2023-05-08T14:47:26;2.20;;;1.20;;
12585;SDS011;6358;50.760;0.282;2023-05-08T14:49:52;1.77;;;1.27;;
12585;SDS011;6358;50.760;0.282;2023-05-08T14:52:18;1.70;;;1.50;;
12585;SDS011;6358;50.760;0.282;2023-05-08T14:54:44;1.60;;;1.30;;
12585;SDS011;6358;50.760;0.282;2023-05-08T14:57:16;1.80;;;1.37;;
12585;SDS011;6358;50.760;0.282;2023-05-08T14:59:42;1.77;;;1.30;;
12585;SDS011;6358;50.760;0.282;2023-05-08T15:02:09;1.30;;;1.20;;
12585;SDS011;6358;50.760;0.282;2023-05-08T15:04:35;2.10;;;1.30;;
12585;SDS011;6358;50.760;0.282;2023-05-08T15:07:05;1.43;;;1.23;;
12585;SDS011;6358;50.760;0.282;2023-05-08T15:09:31;1.20;;;1.10;;
12585;SDS011;6358;50.760;0.282;2023-05-08T15:11:57;1.73;;;1.20;;
12585;SDS011;6358;50.760;0.282;2023-05-08T15:14:23;1.30;;;1.20;;
12585;SDS011;6358;50.760;0.282;2023-05-08T15:16:51;2.00;;;1.43;;
12585;SDS011;6358;50.760;0.282;2023-05-08T15:19:17;1.40;;;1.27;;
12585;SDS011;6358;50.760;0.282;2023-05-08T15:21:43;1.30;;;1.20;;
12585;SDS011;6358;50.760;0.282;2023-05-08T15:24:09;1.57;;;1.20;;
12585;SDS011;6358;50.760;0.282;2023-05-08T15:26:35;1.50;;;1.30;;
12585;SDS011;6358;50.760;0.282;2023-05-08T15:29:01;1.20;;;1.10;;
12585;SDS011;6358;50.760;0.282;2023-05-08T15:31:27;1.63;;;1.40;;
12585;SDS011;6358;50.760;0.282;2023-05-08T15:33:53;1.27;;;1.17;;
12585;SDS011;6358;50.760;0.282;2023-05-08T15:36:19;1.93;;;1.20;;
12585;SDS011;6358;50.760;0.282;2023-05-08T15:38:45;1.20;;;1.10;;
12585;SDS011;6358;50.760;0.282;2023-05-08T15:41:13;2.17;;;1.30;;
12585;SDS011;6358;50.760;0.282;2023-05-08T15:43:39;1.60;;;1.27;;
12585;SDS011;6358;50.760;0.282;2023-05-08T15:46:05;1.40;;;1.30;;
12585;SDS011;6358;50.760;0.282;2023-05-08T15:48:31;2.47;;;1.37;;
12585;SDS011;6358;50.760;0.282;2023-05-08T15:50:57;1.50;;;1.40;;
12585;SDS011;6358;50.760;0.282;2023-05-08T15:53:24;2.03;;;1.30;;
12585;SDS011;6358;50.760;0.282;2023-05-08T15:55:50;1.37;;;1.27;;
12585;SDS011;6358;50.760;0.282;2023-05-08T15:58:16;2.53;;;1.30;;
12585;SDS011;6358;50.760;0.282;2023-05-08T16:00:42;1.90;;;1.23;;